createdAt,value
2022-09-03T00:02:28.424Z,14.62
2022-09-03T00:06:02.669Z,14.57
2022-09-03T00:09:11.138Z,14.58
2022-09-03T00:12:32.928Z,14.51
2022-09-03T00:15:39.912Z,14.50
2022-09-03T00:18:51.172Z,14.67
2022-09-03T00:22:03.623Z,14.61
2022-09-03T00:25:14.575Z,14.47
2022-09-03T00:28:34.250Z,14.36
2022-09-03T00:31:58.916Z,14.33
2022-09-03T00:35:04.884Z,14.35
2022-09-03T00:38:09.623Z,14.27
2022-09-03T00:41:33.993Z,14.13
2022-09-03T00:44:48.538Z,14.42
2022-09-03T00:48:14.168Z,14.44
2022-09-03T00:51:52.948Z,14.45
2022-09-03T00:54:58.832Z,14.63
2022-09-03T00:58:21.391Z,14.38
2022-09-03T01:01:48.164Z,14.25
2022-09-03T01:05:36.601Z,14.13
2022-09-03T01:09:16.816Z,14.04
2022-09-03T01:12:33.726Z,14.29
2022-09-03T01:15:42.055Z,14.14
2022-09-03T01:19:27.877Z,14.05
2022-09-03T01:22:52.238Z,13.93
2022-09-03T01:26:16.820Z,13.87
2022-09-03T01:29:28.661Z,13.85
2022-09-03T01:32:37.385Z,13.77
2022-09-03T01:36:16.064Z,13.72
2022-09-03T01:39:51.632Z,13.91
2022-09-03T01:43:06.570Z,14.11
2022-09-03T01:46:17.010Z,14.19
2022-09-03T01:49:27.835Z,14.10
2022-09-03T01:52:52.455Z,14.22
2022-09-03T01:56:26.077Z,14.11
2022-09-03T01:59:48.536Z,13.90
2022-09-03T02:02:52.897Z,13.83
2022-09-03T02:05:56.008Z,13.90
2022-09-03T02:08:59.828Z,13.87
2022-09-03T02:12:16.780Z,13.97
2022-09-03T02:15:23.376Z,13.88
2022-09-03T02:18:31.880Z,13.55
2022-09-03T02:21:37.272Z,13.60
2022-09-03T02:24:42.436Z,13.43
2022-09-03T02:27:46.487Z,13.36
2022-09-03T02:30:49.774Z,13.36
2022-09-03T02:33:53.600Z,13.32
2022-09-03T02:36:56.705Z,13.36
2022-09-03T02:39:59.503Z,13.77
2022-09-03T02:43:05.463Z,13.57
2022-09-03T02:46:21.690Z,13.82
2022-09-03T02:49:24.771Z,13.64
2022-09-03T02:52:27.521Z,13.66
2022-09-03T02:55:30.642Z,13.35
2022-09-03T02:58:33.448Z,13.13
2022-09-03T03:01:36.989Z,13.08
2022-09-03T03:04:40.553Z,13.07
2022-09-03T03:07:43.474Z,12.91
2022-09-03T03:10:48.036Z,12.79
2022-09-03T03:13:52.629Z,12.87
2022-09-03T03:16:55.473Z,13.10
2022-09-03T03:19:58.480Z,13.03
2022-09-03T03:23:05.785Z,12.84
2022-09-03T03:26:12.358Z,12.77
2022-09-03T03:29:20.161Z,12.78
2022-09-03T03:32:27.000Z,12.80
2022-09-03T03:35:29.634Z,12.86
2022-09-03T03:38:33.089Z,12.82
2022-09-03T03:41:36.912Z,12.79
2022-09-03T03:44:39.976Z,12.67
2022-09-03T03:47:42.673Z,12.75
2022-09-03T03:50:45.632Z,12.86
2022-09-03T03:53:48.575Z,12.97
2022-09-03T03:56:55.439Z,12.90
2022-09-03T03:59:58.601Z,12.83
2022-09-03T04:03:01.815Z,12.73
2022-09-03T04:06:06.297Z,12.63
2022-09-03T04:09:09.621Z,12.64
2022-09-03T04:12:12.644Z,12.80
2022-09-03T04:15:15.543Z,12.76
2022-09-03T04:18:18.528Z,12.78
2022-09-03T04:21:23.666Z,12.68
2022-09-03T04:24:27.691Z,12.74
2022-09-03T04:27:30.533Z,12.67
2022-09-03T04:30:33.697Z,12.65
2022-09-03T04:33:40.352Z,12.62
2022-09-03T04:36:43.292Z,12.54
2022-09-03T04:39:46.422Z,12.53
2022-09-03T04:42:49.527Z,12.50
2022-09-03T04:45:52.260Z,12.51
2022-09-03T04:48:58.560Z,12.49
2022-09-03T04:52:01.651Z,12.52
2022-09-03T04:55:05.155Z,12.63
2022-09-03T04:58:08.744Z,13.20
2022-09-03T05:01:18.463Z,13.69
2022-09-03T05:04:21.172Z,14.23
2022-09-03T05:07:24.210Z,14.52
2022-09-03T05:10:26.934Z,14.94
2022-09-03T05:13:30.027Z,15.39
2022-09-03T05:16:32.855Z,15.66
2022-09-03T05:19:35.935Z,15.94
2022-09-03T05:22:38.695Z,16.22
2022-09-03T05:25:42.697Z,16.57
2022-09-03T05:28:46.573Z,16.91
2022-09-03T05:31:49.682Z,17.07
2022-09-03T05:34:52.737Z,17.09
2022-09-03T05:37:56.342Z,16.97
2022-09-03T05:41:01.907Z,16.69
2022-09-03T05:44:06.298Z,16.27
2022-09-03T05:47:08.991Z,16.24
2022-09-03T05:50:12.632Z,16.30
2022-09-03T05:53:15.735Z,16.34
2022-09-03T05:56:23.774Z,16.36
2022-09-03T05:59:26.563Z,16.38
2022-09-03T06:02:29.661Z,16.37
2022-09-03T06:05:32.619Z,16.39
2022-09-03T06:08:42.327Z,16.51
2022-09-03T06:11:46.979Z,16.67
2022-09-03T06:14:49.840Z,16.87
2022-09-03T06:17:52.851Z,17.01
2022-09-03T06:21:00.695Z,17.11
2022-09-03T06:24:04.062Z,17.15
2022-09-03T06:27:06.735Z,17.23
2022-09-03T06:30:10.330Z,17.26
2022-09-03T06:33:13.031Z,17.41
2022-09-03T06:36:18.942Z,17.54
2022-09-03T06:39:21.851Z,17.64
2022-09-03T06:42:27.371Z,17.77
2022-09-03T06:45:32.521Z,17.81
2022-09-03T06:48:37.146Z,17.89
2022-09-03T06:51:40.210Z,18.03
2022-09-03T06:54:43.134Z,18.22
2022-09-03T06:57:45.825Z,18.41
2022-09-03T07:00:50.236Z,18.79
2022-09-03T07:03:58.639Z,19.70
2022-09-03T07:07:02.533Z,20.53
2022-09-03T07:10:06.292Z,20.82
2022-09-03T07:13:09.368Z,21.16
2022-09-03T07:16:15.471Z,21.56
2022-09-03T07:19:18.679Z,21.86
2022-09-03T07:22:21.386Z,22.15
2022-09-03T07:25:29.129Z,22.52
2022-09-03T07:28:32.833Z,22.43
2022-09-03T07:31:39.364Z,22.72
2022-09-03T07:34:42.059Z,23.38
2022-09-03T07:37:44.974Z,23.74
2022-09-03T07:40:47.974Z,24.46
2022-09-03T07:43:51.160Z,24.63
2022-09-03T07:46:53.959Z,24.72
2022-09-03T07:49:58.205Z,24.95
2022-09-03T07:53:01.653Z,25.39
2022-09-03T07:56:08.621Z,25.39
2022-09-03T07:59:12.314Z,24.74
2022-09-03T08:02:16.396Z,25.34
2022-09-03T08:05:21.402Z,25.05
2022-09-03T08:08:24.036Z,25.52
2022-09-03T08:11:29.673Z,25.84
2022-09-03T08:14:32.521Z,25.62
2022-09-03T08:17:35.516Z,25.86
2022-09-03T08:20:40.056Z,26.63
2022-09-03T08:23:52.659Z,26.50
2022-09-03T08:26:55.461Z,26.82
2022-09-03T08:29:58.394Z,27.04
2022-09-03T08:33:05.068Z,27.34
2022-09-03T08:36:14.204Z,26.15
2022-09-03T08:39:20.349Z,26.52
2022-09-03T08:42:37.300Z,27.06
2022-09-03T08:45:40.167Z,27.16
2022-09-03T08:48:43.250Z,27.16
2022-09-03T08:51:49.341Z,27.29
2022-09-03T08:54:58.530Z,27.08
2022-09-03T08:58:15.197Z,27.10
2022-09-03T09:01:27.253Z,27.27
2022-09-03T09:04:56.396Z,27.50
2022-09-03T09:08:09.183Z,27.14
2022-09-03T09:11:21.281Z,26.49
2022-09-03T09:14:35.273Z,27.16
2022-09-03T09:18:05.902Z,27.72
2022-09-03T09:21:20.955Z,27.51
2022-09-03T09:24:27.649Z,27.70
2022-09-03T09:27:30.971Z,28.28
2022-09-03T09:30:33.748Z,27.43
2022-09-03T09:33:37.112Z,28.97
2022-09-03T09:36:52.300Z,29.53
2022-09-03T09:39:58.538Z,29.05
2022-09-03T09:43:30.453Z,29.04
2022-09-03T09:46:38.979Z,29.05
2022-09-03T09:50:02.790Z,29.13
2022-09-03T09:53:21.885Z,29.76
2022-09-03T09:56:27.719Z,30.09
2022-09-03T09:59:31.520Z,29.88
2022-09-03T10:02:40.655Z,30.45
2022-09-03T10:05:44.691Z,30.35
2022-09-03T10:08:48.764Z,30.84
2022-09-03T10:12:03.075Z,31.00
2022-09-03T10:15:19.608Z,29.90
2022-09-03T10:18:31.788Z,29.59
2022-09-03T10:21:50.146Z,30.74
2022-09-03T10:24:57.709Z,30.23
2022-09-03T10:28:01.660Z,29.68
2022-09-03T10:31:31.002Z,30.23
2022-09-03T10:35:36.001Z,29.20
2022-09-03T10:38:42.480Z,29.05
2022-09-03T10:42:22.084Z,29.34
2022-09-03T10:45:47.459Z,29.07
2022-09-03T10:49:11.556Z,28.60
2022-09-03T10:52:39.104Z,28.85
2022-09-03T10:55:51.228Z,29.94
2022-09-03T10:59:20.057Z,30.01
2022-09-03T11:03:00.554Z,29.96
2022-09-03T11:06:15.571Z,29.75
2022-09-03T11:09:30.514Z,28.14
2022-09-03T11:12:40.581Z,28.15
2022-09-03T11:15:52.500Z,28.30
2022-09-03T11:19:06.176Z,28.24
2022-09-03T11:22:12.939Z,28.39
2022-09-03T11:25:32.397Z,30.13
2022-09-03T11:28:45.712Z,30.21
2022-09-03T11:32:01.956Z,28.66
2022-09-03T11:35:24.701Z,27.87
2022-09-03T11:38:32.230Z,26.94
2022-09-03T11:41:35.998Z,26.44
2022-09-03T11:44:48.436Z,26.93
2022-09-03T11:47:56.622Z,28.51
2022-09-03T11:50:59.687Z,28.04
2022-09-03T11:54:24.991Z,28.63
2022-09-03T11:57:30.942Z,28.18
2022-09-03T12:00:34.906Z,27.11
2022-09-03T12:03:44.613Z,26.26
2022-09-03T12:07:07.573Z,26.68
2022-09-03T12:10:29.558Z,27.35
2022-09-03T12:13:59.139Z,28.73
2022-09-03T12:17:33.640Z,28.70
2022-09-03T12:20:36.688Z,28.71
2022-09-03T12:23:48.024Z,28.52
2022-09-03T12:26:50.828Z,29.59
2022-09-03T12:30:00.389Z,30.39
2022-09-03T12:33:06.417Z,30.12
2022-09-03T12:36:10.289Z,28.74
2022-09-03T12:40:04.866Z,27.99
2022-09-03T12:42:48.123Z,26.97
2022-09-03T12:46:10.532Z,26.31
2022-09-03T12:49:30.944Z,25.83
2022-09-03T12:52:49.878Z,25.83
2022-09-03T12:55:57.266Z,25.52
2022-09-03T12:59:06.421Z,25.88
2022-09-03T13:02:23.685Z,26.99
2022-09-03T13:05:52.299Z,28.39
2022-09-03T13:09:01.435Z,29.36
2022-09-03T13:12:07.641Z,30.17
2022-09-03T13:15:20.099Z,30.10
2022-09-03T13:18:43.506Z,28.40
2022-09-03T13:21:57.836Z,26.62
2022-09-03T13:25:14.999Z,25.91
2022-09-03T13:28:59.746Z,26.39
2022-09-03T13:32:29.068Z,26.62
2022-09-03T13:35:50.075Z,27.91
2022-09-03T13:39:06.308Z,27.98
2022-09-03T13:42:31.396Z,27.95
2022-09-03T13:45:46.906Z,28.11
2022-09-03T13:49:16.285Z,28.19
2022-09-03T13:52:28.676Z,28.36
2022-09-03T13:55:31.546Z,28.10
2022-09-03T13:58:56.864Z,27.61
2022-09-03T14:02:15.145Z,27.72
2022-09-03T14:05:32.506Z,27.32
2022-09-03T14:08:59.048Z,27.43
2022-09-03T14:12:16.449Z,27.31
2022-09-03T14:15:29.635Z,27.32
2022-09-03T14:18:44.693Z,27.22
2022-09-03T14:22:04.778Z,27.29
2022-09-03T14:25:27.652Z,27.53
2022-09-03T14:28:40.534Z,27.33
2022-09-03T14:32:05.202Z,27.43
2022-09-03T14:35:36.114Z,27.72
2022-09-03T14:39:27.726Z,27.50
2022-09-03T14:42:36.466Z,27.32
2022-09-03T14:46:05.960Z,26.77
2022-09-03T14:49:22.552Z,26.62
2022-09-03T14:52:53.489Z,26.24
2022-09-03T14:56:26.987Z,25.69
2022-09-03T14:59:56.609Z,25.27
2022-09-03T15:03:16.081Z,24.82
2022-09-03T15:06:31.012Z,24.46
2022-09-03T15:10:02.628Z,24.33
2022-09-03T15:13:36.997Z,24.18
2022-09-03T15:16:54.051Z,24.09
2022-09-03T15:20:03.407Z,24.08
2022-09-03T15:23:40.437Z,24.04
2022-09-03T15:26:47.878Z,24.09
2022-09-03T15:30:14.044Z,24.15
2022-09-03T15:33:40.585Z,24.19
2022-09-03T15:36:49.326Z,24.30
2022-09-03T15:40:05.269Z,24.32
2022-09-03T15:43:09.562Z,24.30
2022-09-03T15:46:47.573Z,24.21
2022-09-03T15:50:10.635Z,24.18
2022-09-03T15:53:36.984Z,24.16
2022-09-03T15:56:53.324Z,24.03
2022-09-03T16:00:16.938Z,23.93
2022-09-03T16:03:56.179Z,23.87
2022-09-03T16:07:02.143Z,23.79
2022-09-03T16:10:26.341Z,23.72
2022-09-03T16:13:45.260Z,23.62
2022-09-03T16:17:09.436Z,23.50
2022-09-03T16:20:21.932Z,23.41
2022-09-03T16:23:49.469Z,23.24
2022-09-03T16:27:30.861Z,23.07
2022-09-03T16:30:39.655Z,22.92
2022-09-03T16:33:55.214Z,22.81
2022-09-03T16:37:20.133Z,22.68
2022-09-03T16:41:01.034Z,22.55
2022-09-03T16:44:20.849Z,22.45
2022-09-03T16:47:45.376Z,22.33
2022-09-03T16:51:26.924Z,22.21
2022-09-03T16:54:57.199Z,22.13
2022-09-03T16:58:19.171Z,21.96
2022-09-03T17:01:41.080Z,21.80
2022-09-03T17:04:48.006Z,21.68
2022-09-03T17:08:06.262Z,21.56
2022-09-03T17:11:46.814Z,21.42
2022-09-03T17:14:55.876Z,21.25
2022-09-03T17:18:17.007Z,21.07
2022-09-03T17:21:34.821Z,21.02
2022-09-03T17:24:54.913Z,21.01
2022-09-03T17:28:09.897Z,20.93
2022-09-03T17:31:51.870Z,20.78
2022-09-03T17:35:13.149Z,20.63
2022-09-03T17:38:45.211Z,20.50
2022-09-03T17:42:05.268Z,20.47
2022-09-03T17:45:24.678Z,20.45
2022-09-03T17:48:55.060Z,20.32
2022-09-03T17:52:35.636Z,20.24
2022-09-03T17:55:42.991Z,20.21
2022-09-03T17:58:54.614Z,20.03
2022-09-03T18:02:27.512Z,20.03
2022-09-03T18:05:46.119Z,20.00
2022-09-03T18:09:01.156Z,19.93
2022-09-03T18:12:18.995Z,20.04
2022-09-03T18:15:28.266Z,20.04
2022-09-03T18:18:37.491Z,19.94
2022-09-03T18:21:58.921Z,19.83
2022-09-03T18:25:21.641Z,19.85
2022-09-03T18:29:09.315Z,19.83
2022-09-03T18:32:31.431Z,19.73
2022-09-03T18:35:53.893Z,19.68
2022-09-03T18:39:43.422Z,19.73
2022-09-03T18:43:42.639Z,19.61
2022-09-03T18:48:01.476Z,19.62
2022-09-03T18:51:18.764Z,19.44
2022-09-03T18:55:06.892Z,19.32
2022-09-03T18:58:57.054Z,19.31
2022-09-03T19:02:33.090Z,19.39
2022-09-03T19:06:00.999Z,19.35
2022-09-03T19:09:27.955Z,19.24
2022-09-03T19:13:14.443Z,19.09
2022-09-03T19:16:51.922Z,18.98
2022-09-03T19:20:38.937Z,19.02
2022-09-03T19:24:01.662Z,19.05
2022-09-03T19:27:59.828Z,19.09
2022-09-03T19:31:50.712Z,19.02
2022-09-03T19:35:23.234Z,19.08
2022-09-03T19:38:56.236Z,19.12
2022-09-03T19:42:37.133Z,18.94
2022-09-03T19:46:17.824Z,18.93
2022-09-03T19:49:51.878Z,18.80
2022-09-03T19:53:20.492Z,18.79
2022-09-03T19:56:47.483Z,18.74
2022-09-03T20:00:10.835Z,18.73
2022-09-03T20:03:33.796Z,18.83
2022-09-03T20:06:57.129Z,18.74
2022-09-03T20:10:23.018Z,18.74
2022-09-03T20:13:26.366Z,18.71
2022-09-03T20:16:51.131Z,18.64
2022-09-03T20:19:54.309Z,18.57
2022-09-03T20:23:03.470Z,18.50
2022-09-03T20:26:20.032Z,18.50
2022-09-03T20:29:48.247Z,18.58
2022-09-03T20:33:11.090Z,18.61
2022-09-03T20:36:32.645Z,18.61
2022-09-03T20:39:59.310Z,18.54
2022-09-03T20:43:35.603Z,18.51
2022-09-03T20:47:14.161Z,18.53
2022-09-03T20:50:19.524Z,18.49
2022-09-03T20:54:00.077Z,18.42
2022-09-03T20:57:09.988Z,18.41
2022-09-03T21:00:15.811Z,18.43
2022-09-03T21:03:40.848Z,18.42
2022-09-03T21:07:10.043Z,18.47
2022-09-03T21:10:32.097Z,18.43
2022-09-03T21:13:55.857Z,18.42
2022-09-03T21:17:09.358Z,18.41
2022-09-03T21:20:41.009Z,18.42
2022-09-03T21:23:48.178Z,18.40
2022-09-03T21:27:02.113Z,18.42
2022-09-03T21:30:17.675Z,18.49
2022-09-03T21:33:27.154Z,18.46
2022-09-03T21:36:34.075Z,18.45
2022-09-03T21:39:57.404Z,18.49
2022-09-03T21:43:31.683Z,18.53
2022-09-03T21:47:06.361Z,18.53
2022-09-03T21:50:17.508Z,18.52
2022-09-03T21:53:33.419Z,18.47
2022-09-03T21:56:58.543Z,18.46
2022-09-03T22:00:19.524Z,18.49
2022-09-03T22:03:22.666Z,18.51
2022-09-03T22:07:03.740Z,18.48
2022-09-03T22:10:21.361Z,18.54
2022-09-03T22:13:31.186Z,18.58
2022-09-03T22:16:46.605Z,18.57
2022-09-03T22:19:49.492Z,18.62
2022-09-03T22:23:01.896Z,18.62
2022-09-03T22:26:20.405Z,18.62
2022-09-03T22:29:29.227Z,18.72
2022-09-03T22:32:45.813Z,18.79
2022-09-03T22:35:56.329Z,18.76
2022-09-03T22:39:21.960Z,18.83
2022-09-03T22:42:51.311Z,18.87
2022-09-03T22:46:00.281Z,18.96
2022-09-03T22:49:25.515Z,19.05
2022-09-03T22:52:42.076Z,19.08
2022-09-03T22:56:10.148Z,19.08
2022-09-03T22:59:30.205Z,19.09
2022-09-03T23:02:34.501Z,19.21
2022-09-03T23:05:45.689Z,19.24
2022-09-03T23:08:57.237Z,19.19
2022-09-03T23:12:11.316Z,19.19
2022-09-03T23:15:30.477Z,19.23
2022-09-03T23:18:36.328Z,19.29
2022-09-03T23:21:47.418Z,19.31
2022-09-03T23:24:58.438Z,19.34
2022-09-03T23:28:03.686Z,19.33
2022-09-03T23:31:27.341Z,19.41
2022-09-03T23:34:30.322Z,19.37
2022-09-03T23:38:03.971Z,19.41
2022-09-03T23:41:25.875Z,19.40
2022-09-03T23:44:28.507Z,19.38
2022-09-03T23:47:45.762Z,19.40
2022-09-03T23:51:19.634Z,19.42
2022-09-03T23:54:28.282Z,19.42
2022-09-03T23:57:48.178Z,19.37
